createdAt,value
2023-05-23T00:01:22.582Z,13.67
2023-05-23T00:02:54.181Z,13.46
2023-05-23T00:04:26.929Z,14.56
2023-05-23T00:05:58.773Z,14.60
2023-05-23T00:07:30.170Z,13.95
2023-05-23T00:09:01.723Z,15.56
2023-05-23T00:10:33.121Z,13.99
2023-05-23T00:12:04.441Z,13.51
2023-05-23T00:13:35.854Z,13.68
2023-05-23T00:15:07.195Z,13.78
2023-05-23T00:16:38.524Z,14.35
2023-05-23T00:18:10.006Z,12.21
2023-05-23T00:19:41.539Z,13.15
2023-05-23T00:21:12.936Z,13.96
2023-05-23T00:22:44.288Z,13.05
2023-05-23T00:24:15.660Z,12.62
2023-05-23T00:25:47.068Z,13.27
2023-05-23T00:27:18.493Z,13.90
2023-05-23T00:28:49.999Z,12.74
2023-05-23T00:30:21.549Z,12.40
2023-05-23T00:31:52.943Z,12.70
2023-05-23T00:33:24.483Z,12.30
2023-05-23T00:34:56.473Z,12.89
2023-05-23T00:36:27.834Z,11.71
2023-05-23T00:37:59.166Z,12.13
2023-05-23T00:39:30.687Z,11.71
2023-05-23T00:41:02.021Z,11.93
2023-05-23T00:42:33.485Z,11.83
2023-05-23T00:44:04.805Z,11.09
2023-05-23T00:45:36.186Z,9.60
2023-05-23T00:47:08.174Z,11.38
2023-05-23T00:48:39.965Z,10.78
2023-05-23T00:50:11.394Z,9.93
2023-05-23T00:51:42.824Z,9.61
2023-05-23T00:53:14.391Z,8.74
2023-05-23T00:54:45.836Z,9.00
2023-05-23T00:56:17.154Z,9.06
2023-05-23T00:57:48.500Z,7.44
2023-05-23T00:59:19.862Z,6.37
2023-05-23T01:00:51.314Z,7.25
2023-05-23T01:02:22.747Z,6.62
2023-05-23T01:03:54.172Z,6.12
2023-05-23T01:05:25.641Z,6.94
2023-05-23T01:06:56.989Z,7.46
2023-05-23T01:08:28.479Z,7.76
2023-05-23T01:09:59.898Z,7.46
2023-05-23T01:11:31.323Z,6.96
2023-05-23T01:13:02.719Z,7.56
2023-05-23T01:14:34.135Z,8.00
2023-05-23T01:16:05.483Z,6.58
2023-05-23T01:17:37.019Z,6.46
2023-05-23T01:19:08.455Z,7.40
2023-05-23T01:20:39.980Z,8.06
2023-05-23T01:22:11.266Z,6.54
2023-05-23T01:23:42.604Z,7.14
2023-05-23T01:25:13.910Z,8.67
2023-05-23T01:26:45.361Z,9.35
2023-05-23T01:28:16.711Z,8.00
2023-05-23T01:29:48.022Z,6.76
2023-05-23T01:31:19.350Z,6.01
2023-05-23T01:32:50.790Z,6.97
2023-05-23T01:34:22.206Z,7.19
2023-05-23T01:35:53.530Z,6.69
2023-05-23T01:37:24.823Z,7.92
2023-05-23T01:38:56.252Z,7.06
2023-05-23T01:40:27.552Z,7.02
2023-05-23T01:41:58.847Z,6.94
2023-05-23T01:43:30.120Z,7.41
2023-05-23T01:45:01.423Z,7.58
2023-05-23T01:46:33.083Z,7.51
2023-05-23T01:48:04.509Z,8.36
2023-05-23T01:49:35.853Z,7.64
2023-05-23T01:51:07.478Z,8.28
2023-05-23T01:52:39.927Z,9.16
2023-05-23T01:54:11.488Z,8.82
2023-05-23T01:55:42.916Z,7.98
2023-05-23T01:57:14.348Z,7.43
2023-05-23T01:58:45.839Z,7.89
2023-05-23T02:00:17.426Z,7.91
2023-05-23T02:01:48.796Z,8.02
2023-05-23T02:03:20.910Z,8.04
2023-05-23T02:04:52.406Z,8.56
2023-05-23T02:06:23.858Z,9.37
2023-05-23T02:07:55.324Z,8.64
2023-05-23T02:09:26.627Z,8.26
2023-05-23T02:10:57.930Z,6.76
2023-05-23T02:12:29.349Z,8.70
2023-05-23T02:14:00.679Z,8.16
2023-05-23T02:15:32.025Z,8.06
2023-05-23T02:17:03.612Z,7.82
2023-05-23T02:18:35.011Z,8.43
2023-05-23T02:20:06.374Z,9.53
2023-05-23T02:21:37.724Z,9.88
2023-05-23T02:23:09.091Z,9.03
2023-05-23T02:24:40.374Z,8.77
2023-05-23T02:26:11.658Z,9.45
2023-05-23T02:27:43.053Z,10.37
2023-05-23T02:29:14.731Z,9.91
2023-05-23T02:30:46.320Z,10.57
2023-05-23T02:32:17.839Z,9.35
2023-05-23T02:33:49.217Z,9.24
2023-05-23T02:35:20.742Z,9.98
2023-05-23T02:36:52.431Z,10.57
2023-05-23T02:38:23.835Z,8.50
2023-05-23T02:39:55.161Z,9.90
2023-05-23T02:41:26.566Z,10.43
2023-05-23T02:42:57.884Z,10.45
2023-05-23T02:44:29.183Z,10.54
2023-05-23T02:46:00.639Z,11.03
2023-05-23T02:47:32.036Z,13.93
2023-05-23T02:49:03.458Z,12.21
2023-05-23T02:50:34.767Z,11.88
2023-05-23T02:52:06.094Z,13.21
2023-05-23T02:53:37.422Z,12.22
2023-05-23T02:55:08.728Z,12.40
2023-05-23T02:56:40.130Z,12.25
2023-05-23T02:58:11.421Z,12.30
2023-05-23T02:59:43.140Z,11.73
2023-05-23T03:01:14.645Z,14.06
2023-05-23T03:02:46.020Z,12.81
2023-05-23T03:04:17.680Z,12.98
2023-05-23T03:05:49.059Z,12.74
2023-05-23T03:07:28.176Z,13.11
2023-05-23T03:09:00.394Z,14.67
2023-05-23T03:10:31.944Z,11.68
2023-05-23T03:12:03.397Z,13.59
2023-05-23T03:13:34.704Z,14.08
2023-05-23T03:15:05.985Z,13.12
2023-05-23T03:16:37.473Z,12.95
2023-05-23T03:18:08.887Z,14.32
2023-05-23T03:19:40.453Z,12.91
2023-05-23T03:21:11.896Z,15.08
2023-05-23T03:22:43.232Z,14.20
2023-05-23T03:24:14.540Z,13.92
2023-05-23T03:25:45.871Z,14.75
2023-05-23T03:27:17.251Z,15.10
2023-05-23T03:28:48.557Z,17.55
2023-05-23T03:30:19.874Z,18.10
2023-05-23T03:31:51.665Z,15.84
2023-05-23T03:33:23.057Z,15.96
2023-05-23T03:34:54.434Z,15.59
2023-05-23T03:36:25.799Z,18.27
2023-05-23T03:37:57.081Z,16.88
2023-05-23T03:39:28.567Z,16.18
2023-05-23T03:40:59.981Z,17.69
2023-05-23T03:42:31.453Z,16.19
2023-05-23T03:44:02.724Z,17.97
2023-05-23T03:45:34.229Z,17.14
2023-05-23T03:47:05.930Z,18.19
2023-05-23T03:48:37.322Z,15.65
2023-05-23T03:50:08.772Z,15.90
2023-05-23T03:51:40.107Z,16.81
2023-05-23T03:53:11.353Z,18.19
2023-05-23T03:54:42.689Z,18.33
2023-05-23T03:56:13.979Z,19.96
2023-05-23T03:57:45.358Z,17.09
2023-05-23T03:59:16.782Z,19.87
2023-05-23T04:00:48.116Z,16.63
2023-05-23T04:02:20.766Z,17.72
2023-05-23T04:03:57.335Z,18.79
2023-05-23T04:05:28.755Z,19.56
2023-05-23T04:07:00.048Z,18.56
2023-05-23T04:08:31.363Z,18.60
2023-05-23T04:10:02.645Z,18.21
2023-05-23T04:11:34.130Z,18.21
2023-05-23T04:13:05.528Z,17.65
2023-05-23T04:14:36.838Z,18.90
2023-05-23T04:16:08.071Z,19.87
2023-05-23T04:17:39.543Z,17.72
2023-05-23T04:19:10.995Z,18.43
2023-05-23T04:20:42.292Z,16.27
2023-05-23T04:22:13.641Z,19.04
2023-05-23T04:23:45.052Z,16.82
2023-05-23T04:25:16.440Z,16.92
2023-05-23T04:26:47.836Z,20.91
2023-05-23T04:28:58.719Z,19.24
2023-05-23T04:30:31.710Z,19.41
2023-05-23T04:32:03.005Z,18.49
2023-05-23T04:33:34.450Z,18.16
2023-05-23T04:35:06.494Z,19.71
2023-05-23T04:36:38.764Z,18.91
2023-05-23T04:38:10.220Z,17.60
2023-05-23T04:39:41.631Z,16.51
2023-05-23T04:41:13.081Z,15.90
2023-05-23T04:42:44.543Z,15.57
2023-05-23T04:44:15.932Z,17.90
2023-05-23T04:45:47.300Z,19.55
2023-05-23T04:47:18.735Z,18.99
2023-05-23T04:48:50.253Z,17.27
2023-05-23T04:50:21.741Z,17.72
2023-05-23T04:51:53.028Z,18.58
2023-05-23T04:53:24.325Z,17.27
2023-05-23T04:54:56.045Z,16.24
2023-05-23T04:56:27.528Z,17.96
2023-05-23T04:57:58.899Z,17.51
2023-05-23T04:59:30.365Z,16.69
2023-05-23T05:01:01.729Z,17.48
2023-05-23T05:02:33.272Z,16.10
2023-05-23T05:04:04.889Z,15.63
2023-05-23T05:05:36.492Z,15.75
2023-05-23T05:07:07.850Z,16.12
2023-05-23T05:08:39.427Z,16.53
2023-05-23T05:10:10.771Z,14.85
2023-05-23T05:11:42.340Z,16.97
2023-05-23T05:13:13.813Z,16.60
2023-05-23T05:14:45.188Z,18.82
2023-05-23T05:16:16.710Z,19.11
2023-05-23T05:17:49.893Z,20.25
2023-05-23T05:19:21.740Z,20.98
2023-05-23T05:20:53.140Z,25.32
2023-05-23T05:22:24.766Z,22.86
2023-05-23T05:23:56.063Z,21.24
2023-05-23T05:25:27.393Z,17.65
2023-05-23T05:26:58.973Z,20.50
2023-05-23T05:28:30.264Z,20.01
2023-05-23T05:30:01.709Z,18.96
2023-05-23T05:31:33.261Z,19.58
2023-05-23T05:33:04.741Z,21.88
2023-05-23T05:34:36.192Z,20.98
2023-05-23T05:36:07.457Z,22.31
2023-05-23T05:37:39.009Z,20.00
2023-05-23T05:39:10.474Z,21.10
2023-05-23T05:40:42.230Z,20.57
2023-05-23T05:42:13.683Z,19.40
2023-05-23T05:43:45.025Z,21.24
2023-05-23T05:45:16.519Z,22.44
2023-05-23T05:46:47.981Z,20.71
2023-05-23T05:48:19.716Z,21.20
2023-05-23T05:49:51.031Z,20.86
2023-05-23T05:51:22.352Z,20.78
2023-05-23T05:52:53.664Z,19.98
2023-05-23T05:54:25.266Z,20.14
2023-05-23T05:55:56.564Z,20.50
2023-05-23T05:57:27.902Z,21.42
2023-05-23T05:58:59.321Z,22.05
2023-05-23T06:00:31.053Z,22.11
2023-05-23T06:02:02.389Z,23.17
2023-05-23T06:03:33.899Z,23.71
2023-05-23T06:05:05.364Z,23.91
2023-05-23T06:06:36.811Z,25.62
2023-05-23T06:08:08.176Z,26.04
2023-05-23T06:09:39.503Z,25.27
2023-05-23T06:11:10.758Z,25.87
2023-05-23T06:12:42.088Z,25.31
2023-05-23T06:14:13.446Z,25.89
2023-05-23T06:15:45.360Z,27.39
2023-05-23T06:17:17.118Z,25.55
2023-05-23T06:18:48.533Z,27.66
2023-05-23T06:20:19.853Z,26.98
2023-05-23T06:21:51.359Z,25.01
2023-05-23T06:23:22.670Z,24.40
2023-05-23T06:24:53.999Z,24.45
2023-05-23T06:26:25.362Z,22.32
2023-05-23T06:27:56.705Z,23.23
2023-05-23T06:29:28.174Z,22.91
2023-05-23T06:30:59.482Z,23.57
2023-05-23T06:32:30.808Z,22.69
2023-05-23T06:34:02.861Z,24.05
2023-05-23T06:35:34.417Z,24.92
2023-05-23T06:37:05.774Z,23.77
2023-05-23T06:38:37.103Z,24.74
2023-05-23T06:40:08.385Z,24.78
2023-05-23T06:41:39.749Z,25.84
2023-05-23T06:43:11.132Z,25.84
2023-05-23T06:44:42.614Z,24.45
2023-05-23T06:46:13.881Z,27.00
2023-05-23T06:47:45.490Z,25.77
2023-05-23T06:49:16.976Z,23.52
2023-05-23T06:50:48.320Z,19.59
2023-05-23T06:52:19.688Z,19.94
2023-05-23T06:53:51.087Z,19.94
2023-05-23T06:55:22.464Z,20.07
2023-05-23T06:56:53.962Z,20.48
2023-05-23T06:58:25.954Z,18.26
2023-05-23T06:59:57.466Z,17.70
2023-05-23T07:01:28.902Z,18.34
2023-05-23T07:03:00.352Z,17.32
2023-05-23T07:04:31.751Z,17.64
2023-05-23T07:06:03.187Z,19.21
2023-05-23T07:07:34.545Z,17.52
2023-05-23T07:09:06.084Z,15.48
2023-05-23T07:10:37.506Z,13.25
2023-05-23T07:12:08.793Z,15.33
2023-05-23T07:13:40.336Z,15.78
2023-05-23T07:15:11.664Z,14.78
2023-05-23T07:16:43.277Z,13.76
2023-05-23T07:18:14.758Z,13.64
2023-05-23T07:19:46.082Z,15.51
2023-05-23T07:21:17.511Z,16.00
2023-05-23T07:22:49.082Z,15.60
2023-05-23T07:24:20.438Z,13.74
2023-05-23T07:26:02.086Z,13.68
2023-05-23T07:27:34.451Z,13.80
2023-05-23T07:29:05.771Z,15.27
2023-05-23T07:30:37.226Z,14.37
2023-05-23T07:32:08.516Z,12.80
2023-05-23T07:33:40.064Z,17.02
2023-05-23T07:35:11.668Z,14.34
2023-05-23T07:36:42.983Z,14.17
2023-05-23T07:38:14.279Z,13.79
2023-05-23T07:39:45.722Z,13.03
2023-05-23T07:41:17.268Z,14.56
2023-05-23T07:42:48.578Z,11.82
2023-05-23T07:44:21.180Z,12.08
2023-05-23T07:45:54.567Z,13.07
2023-05-23T07:47:26.005Z,10.31
2023-05-23T07:48:57.470Z,11.66
2023-05-23T07:50:28.823Z,10.31
2023-05-23T07:52:00.203Z,14.26
2023-05-23T07:53:31.574Z,10.95
2023-05-23T07:55:02.989Z,12.88
2023-05-23T07:56:34.324Z,11.92
2023-05-23T07:58:05.588Z,12.95
2023-05-23T07:59:37.238Z,13.18
2023-05-23T08:01:08.609Z,11.68
2023-05-23T08:02:40.005Z,12.04
2023-05-23T08:04:11.506Z,16.64
2023-05-23T08:05:42.858Z,14.44
2023-05-23T08:07:14.179Z,13.86
2023-05-23T08:08:45.577Z,13.31
2023-05-23T08:10:17.030Z,12.81
2023-05-23T08:11:48.429Z,14.98
2023-05-23T08:13:19.747Z,16.83
2023-05-23T08:14:52.477Z,14.41
2023-05-23T08:16:25.405Z,15.05
2023-05-23T08:17:57.488Z,14.08
2023-05-23T08:19:28.965Z,14.48
2023-05-23T08:21:00.408Z,13.15
2023-05-23T08:22:31.844Z,11.01
2023-05-23T08:24:03.130Z,11.80
2023-05-23T08:25:34.678Z,12.84
2023-05-23T08:27:06.155Z,14.40
2023-05-23T08:28:37.527Z,14.42
2023-05-23T08:30:08.846Z,14.10
2023-05-23T08:31:40.286Z,14.63
2023-05-23T08:33:11.657Z,13.46
2023-05-23T08:34:43.488Z,15.94
2023-05-23T08:36:14.810Z,15.00
2023-05-23T08:37:46.240Z,13.11
2023-05-23T08:39:17.695Z,14.52
2023-05-23T08:40:49.206Z,12.23
2023-05-23T08:42:21.391Z,11.12
2023-05-23T08:43:52.721Z,12.10
2023-05-23T08:45:29.048Z,12.72
2023-05-23T08:47:00.364Z,13.73
2023-05-23T08:48:31.786Z,12.74
2023-05-23T08:50:03.176Z,12.41
2023-05-23T08:51:34.521Z,11.58
2023-05-23T08:53:05.887Z,10.26
2023-05-23T08:54:38.040Z,10.27
2023-05-23T08:56:09.320Z,10.25
2023-05-23T08:57:40.783Z,10.94
2023-05-23T08:59:12.162Z,10.00
2023-05-23T09:00:44.001Z,11.72
2023-05-23T09:02:15.768Z,12.03
2023-05-23T09:03:47.150Z,12.89
2023-05-23T09:05:18.914Z,15.93
2023-05-23T09:06:50.364Z,15.75
2023-05-23T09:08:21.889Z,14.50
2023-05-23T09:09:53.204Z,12.56
2023-05-23T09:11:24.552Z,14.13
2023-05-23T09:12:56.031Z,12.74
2023-05-23T09:14:27.346Z,12.25
2023-05-23T09:15:58.684Z,13.09
2023-05-23T09:17:30.228Z,12.95
2023-05-23T09:19:06.688Z,10.89
2023-05-23T09:20:38.783Z,11.92
2023-05-23T09:22:10.522Z,14.06
2023-05-23T09:23:41.851Z,17.03
2023-05-23T09:25:13.290Z,15.98
2023-05-23T09:26:44.672Z,15.61
2023-05-23T09:28:16.107Z,13.98
2023-05-23T09:29:47.637Z,16.73
2023-05-23T09:31:52.716Z,13.60
2023-05-23T09:33:24.112Z,15.82
2023-05-23T09:34:55.811Z,16.49
2023-05-23T09:36:27.351Z,18.44
2023-05-23T09:37:58.869Z,17.07
2023-05-23T09:39:30.242Z,14.83
2023-05-23T09:41:01.529Z,17.57
2023-05-23T09:42:33.208Z,17.42
2023-05-23T09:44:04.682Z,15.95
2023-05-23T09:45:36.070Z,16.07
2023-05-23T09:47:07.564Z,19.52
2023-05-23T09:48:39.071Z,15.21
2023-05-23T09:50:11.149Z,16.11
2023-05-23T09:51:42.570Z,17.83
2023-05-23T09:53:13.959Z,17.89
2023-05-23T09:54:45.506Z,15.25
2023-05-23T09:56:17.017Z,15.36
2023-05-23T09:57:48.433Z,16.56
2023-05-23T09:59:21.096Z,16.63
2023-05-23T10:00:52.462Z,17.44
2023-05-23T10:02:23.879Z,15.57
2023-05-23T10:03:58.787Z,16.23
2023-05-23T10:05:31.326Z,14.63
2023-05-23T10:07:02.837Z,16.20
2023-05-23T10:08:34.277Z,16.24
2023-05-23T10:10:05.714Z,15.83
2023-05-23T10:11:37.034Z,18.66
2023-05-23T10:13:08.388Z,17.11
2023-05-23T10:14:39.910Z,16.87
2023-05-23T10:16:11.274Z,17.50
2023-05-23T10:17:42.653Z,16.88
2023-05-23T10:19:14.016Z,18.92
2023-05-23T10:20:46.545Z,18.38
2023-05-23T10:22:17.966Z,16.57
2023-05-23T10:23:49.365Z,14.41
2023-05-23T10:25:20.691Z,17.79
2023-05-23T10:26:51.997Z,16.35
2023-05-23T10:28:28.339Z,17.78
2023-05-23T10:29:59.726Z,17.52
2023-05-23T10:31:31.364Z,18.34
2023-05-23T10:33:02.856Z,18.92
2023-05-23T10:34:34.401Z,16.77
2023-05-23T10:36:05.968Z,16.87
2023-05-23T10:37:37.482Z,15.78
2023-05-23T10:39:08.773Z,17.06
2023-05-23T10:40:40.359Z,18.83
2023-05-23T10:42:11.900Z,19.36
2023-05-23T10:43:43.189Z,15.53
2023-05-23T10:45:14.491Z,15.38
2023-05-23T10:46:45.933Z,13.56
2023-05-23T10:48:17.511Z,14.09
2023-05-23T10:49:48.830Z,15.27
2023-05-23T10:51:20.146Z,14.18
2023-05-23T10:52:51.649Z,13.66
2023-05-23T10:54:23.089Z,12.41
2023-05-23T10:55:54.872Z,13.29
2023-05-23T10:57:26.439Z,14.88
2023-05-23T10:58:58.152Z,13.46
2023-05-23T11:00:29.573Z,13.61
2023-05-23T11:02:00.921Z,13.63
2023-05-23T11:03:33.693Z,16.60
2023-05-23T11:05:05.118Z,16.61
2023-05-23T11:06:36.623Z,13.98
2023-05-23T11:08:07.952Z,15.03
2023-05-23T11:09:39.335Z,12.93
2023-05-23T11:11:10.959Z,14.31
2023-05-23T11:12:42.562Z,13.82
2023-05-23T11:14:14.030Z,13.94
2023-05-23T11:15:45.399Z,14.75
2023-05-23T11:17:16.944Z,14.65
2023-05-23T11:18:48.532Z,14.06
2023-05-23T11:20:19.982Z,13.72
2023-05-23T11:21:51.663Z,15.09
2023-05-23T11:23:23.095Z,14.71
2023-05-23T11:24:54.646Z,13.83
2023-05-23T11:26:26.025Z,15.63
2023-05-23T11:28:12.694Z,15.64
2023-05-23T11:29:44.056Z,14.32
2023-05-23T11:31:15.440Z,15.50
2023-05-23T11:32:47.007Z,14.84
2023-05-23T11:34:19.514Z,15.28
2023-05-23T11:35:50.837Z,12.57
2023-05-23T11:37:22.257Z,11.72
2023-05-23T11:38:53.653Z,13.77
2023-05-23T11:40:25.084Z,15.00
2023-05-23T11:41:56.499Z,13.69
2023-05-23T11:43:28.055Z,11.13
2023-05-23T11:44:59.392Z,11.85
2023-05-23T11:46:31.911Z,13.63
2023-05-23T11:48:03.412Z,14.03
2023-05-23T11:49:35.039Z,14.05
2023-05-23T11:51:06.423Z,11.77
2023-05-23T11:52:37.745Z,12.76
2023-05-23T11:54:19.266Z,12.79
2023-05-23T11:55:51.791Z,12.45
2023-05-23T11:57:23.174Z,12.08
2023-05-23T11:58:54.623Z,12.35
2023-05-23T12:00:26.262Z,11.41
2023-05-23T12:01:57.612Z,13.33
2023-05-23T12:03:29.582Z,13.02
2023-05-23T12:05:01.252Z,13.43
2023-05-23T12:06:32.676Z,12.52
2023-05-23T12:08:04.007Z,13.08
2023-05-23T12:09:35.509Z,12.70
2023-05-23T12:11:06.939Z,14.57
2023-05-23T12:12:38.409Z,12.63
2023-05-23T12:14:09.902Z,13.43
2023-05-23T12:15:41.301Z,11.67
2023-05-23T12:17:12.644Z,10.02
2023-05-23T12:18:44.500Z,13.48
2023-05-23T12:20:16.635Z,13.01
2023-05-23T12:21:48.012Z,11.85
2023-05-23T12:23:19.453Z,14.67
2023-05-23T12:24:51.056Z,14.25
2023-05-23T12:26:22.456Z,12.28
2023-05-23T12:27:53.822Z,11.62
2023-05-23T12:29:25.239Z,11.15
2023-05-23T12:30:56.674Z,11.87
2023-05-23T12:32:28.213Z,12.66
2023-05-23T12:33:59.727Z,12.26
2023-05-23T12:35:31.692Z,12.96
2023-05-23T12:37:18.262Z,15.43
2023-05-23T12:38:51.525Z,12.64
2023-05-23T12:40:22.945Z,13.15
2023-05-23T12:41:54.318Z,14.57
2023-05-23T12:43:25.697Z,14.06
2023-05-23T12:44:57.070Z,14.68
2023-05-23T12:46:28.882Z,14.97
2023-05-23T12:48:00.536Z,12.24
2023-05-23T12:49:32.046Z,12.96
2023-05-23T12:51:03.725Z,15.02
2023-05-23T12:52:35.101Z,14.95
2023-05-23T12:54:06.568Z,15.64
2023-05-23T12:55:38.083Z,14.58
2023-05-23T12:57:09.481Z,14.17
2023-05-23T12:58:41.013Z,13.27
2023-05-23T13:00:12.495Z,13.83
2023-05-23T13:01:43.998Z,16.28
2023-05-23T13:03:15.501Z,13.47
2023-05-23T13:04:47.094Z,13.27
2023-05-23T13:06:19.057Z,10.86
2023-05-23T13:07:50.553Z,12.73
2023-05-23T13:09:22.239Z,13.32
2023-05-23T13:10:53.719Z,15.00
2023-05-23T13:12:25.399Z,12.03
2023-05-23T13:13:56.900Z,10.81
2023-05-23T13:15:28.345Z,11.86
2023-05-23T13:16:59.801Z,15.69
2023-05-23T13:18:31.533Z,15.55
2023-05-23T13:20:02.983Z,12.07
2023-05-23T13:21:34.542Z,12.60
2023-05-23T13:23:06.121Z,16.04
2023-05-23T13:24:37.635Z,15.01
2023-05-23T13:26:09.130Z,15.06
2023-05-23T13:27:40.563Z,14.31
2023-05-23T13:29:11.995Z,13.39
2023-05-23T13:30:46.593Z,13.27
2023-05-23T13:32:18.618Z,14.67
2023-05-23T13:33:50.034Z,15.37
2023-05-23T13:35:21.570Z,17.15
2023-05-23T13:36:53.162Z,14.73
2023-05-23T13:38:26.737Z,14.27
2023-05-23T13:39:58.612Z,14.65
2023-05-23T13:41:30.064Z,14.64
2023-05-23T13:43:05.385Z,15.19
2023-05-23T13:44:38.168Z,12.76
2023-05-23T13:46:09.728Z,14.80
2023-05-23T13:47:41.388Z,15.04
2023-05-23T13:49:12.805Z,14.69
2023-05-23T13:50:44.599Z,14.13
2023-05-23T13:52:16.335Z,14.66
2023-05-23T13:53:48.074Z,16.72
2023-05-23T13:55:19.546Z,14.38
2023-05-23T13:56:51.138Z,12.93
2023-05-23T13:58:22.679Z,14.12
2023-05-23T13:59:54.188Z,15.55
2023-05-23T14:01:25.890Z,16.10
2023-05-23T14:02:57.377Z,14.39
2023-05-23T14:04:28.926Z,15.22
2023-05-23T14:06:00.718Z,15.91
2023-05-23T14:07:32.209Z,18.10
2023-05-23T14:09:03.999Z,15.05
2023-05-23T14:10:35.410Z,14.77
2023-05-23T14:12:07.105Z,16.76
2023-05-23T14:13:38.841Z,16.76
2023-05-23T14:15:10.396Z,15.08
2023-05-23T14:16:42.065Z,14.18
2023-05-23T14:18:13.677Z,15.05
2023-05-23T14:19:45.140Z,13.08
2023-05-23T14:21:16.626Z,12.10
2023-05-23T14:22:48.012Z,16.24
2023-05-23T14:24:19.605Z,12.24
2023-05-23T14:25:51.066Z,14.00
2023-05-23T14:27:22.550Z,14.68
2023-05-23T14:28:54.037Z,12.28
2023-05-23T14:30:25.529Z,11.58
2023-05-23T14:31:57.451Z,11.31
2023-05-23T14:33:29.287Z,15.13
2023-05-23T14:35:00.908Z,14.75
2023-05-23T14:36:33.155Z,13.44
2023-05-23T14:38:04.557Z,14.40
2023-05-23T14:39:36.150Z,13.32
2023-05-23T14:41:07.640Z,13.95
2023-05-23T14:42:39.357Z,12.52
2023-05-23T14:44:10.927Z,13.33
2023-05-23T14:45:42.802Z,11.68
2023-05-23T14:47:14.497Z,11.49
2023-05-23T14:48:45.947Z,11.98
2023-05-23T14:50:17.329Z,13.60
2023-05-23T14:51:51.304Z,13.17
2023-05-23T14:53:23.533Z,12.95
2023-05-23T14:54:55.075Z,12.51
2023-05-23T14:56:26.545Z,13.42
2023-05-23T14:57:58.044Z,13.52
2023-05-23T14:59:29.536Z,11.94
2023-05-23T15:01:01.081Z,11.16
2023-05-23T15:02:32.507Z,10.20
2023-05-23T15:04:04.122Z,10.50
2023-05-23T15:05:35.596Z,12.13
2023-05-23T15:07:07.058Z,11.36
2023-05-23T15:08:38.633Z,12.25
2023-05-23T15:10:10.334Z,11.62
2023-05-23T15:11:41.849Z,11.76
2023-05-23T15:13:13.284Z,11.26
2023-05-23T15:14:44.869Z,10.48
2023-05-23T15:16:16.382Z,13.39
2023-05-23T15:17:48.001Z,13.88
2023-05-23T15:19:19.562Z,13.50
2023-05-23T15:20:51.249Z,11.97
2023-05-23T15:22:37.896Z,8.67
2023-05-23T15:24:11.058Z,14.20
2023-05-23T15:27:20.952Z,12.23
2023-05-23T15:28:52.585Z,11.20
2023-05-23T15:30:29.273Z,11.61
2023-05-23T15:32:01.821Z,12.09
2023-05-23T15:33:33.382Z,11.17
2023-05-23T15:35:04.787Z,12.06
2023-05-23T15:36:36.539Z,13.95
2023-05-23T15:38:08.092Z,13.07
2023-05-23T15:39:39.516Z,11.24
2023-05-23T15:41:10.925Z,10.77
2023-05-23T15:42:42.301Z,9.46
2023-05-23T15:44:15.041Z,12.86
2023-05-23T15:45:46.589Z,10.80
2023-05-23T15:47:18.070Z,8.98
2023-05-23T15:48:49.492Z,16.37
2023-05-23T15:50:26.046Z,13.22
2023-05-23T15:51:57.679Z,13.31
2023-05-23T15:53:32.301Z,14.34
2023-05-23T15:55:06.942Z,13.09
2023-05-23T15:56:38.328Z,14.86
2023-05-23T15:58:10.121Z,13.06
2023-05-23T15:59:41.610Z,14.84
2023-05-23T16:01:13.081Z,12.83
2023-05-23T16:02:44.546Z,13.69
2023-05-23T16:04:15.961Z,13.39
2023-05-23T16:05:47.449Z,13.45
2023-05-23T16:07:18.856Z,13.34
2023-05-23T16:08:50.242Z,12.22
2023-05-23T16:10:21.632Z,14.41
2023-05-23T16:11:53.009Z,14.52
2023-05-23T16:13:24.546Z,13.93
2023-05-23T16:14:56.107Z,13.26
2023-05-23T16:16:27.528Z,15.61
2023-05-23T16:17:59.568Z,14.12
2023-05-23T16:19:31.263Z,9.74
2023-05-23T16:21:02.857Z,13.10
2023-05-23T16:22:34.441Z,12.44
2023-05-23T16:24:05.845Z,14.00
2023-05-23T16:25:37.364Z,15.12
2023-05-23T16:27:09.019Z,14.93
2023-05-23T16:28:40.453Z,11.77
2023-05-23T16:30:11.833Z,11.44
2023-05-23T16:31:43.342Z,12.02
2023-05-23T16:33:14.923Z,12.12
2023-05-23T16:34:51.850Z,14.31
2023-05-23T16:36:25.497Z,14.06
2023-05-23T16:37:58.181Z,14.13
2023-05-23T16:39:29.649Z,13.04
2023-05-23T16:41:01.081Z,14.39
2023-05-23T16:42:32.482Z,10.66
2023-05-23T16:44:03.933Z,13.26
2023-05-23T16:45:35.512Z,11.46
2023-05-23T16:47:07.166Z,13.07
2023-05-23T16:48:38.562Z,13.06
2023-05-23T16:50:09.933Z,13.00
2023-05-23T16:51:41.492Z,14.55
2023-05-23T16:53:12.847Z,16.41
2023-05-23T16:54:44.248Z,13.14
2023-05-23T16:56:15.658Z,13.23
2023-05-23T16:57:46.980Z,12.21
2023-05-23T16:59:18.427Z,12.12
2023-05-23T17:00:51.164Z,10.39
2023-05-23T17:02:22.623Z,11.12
2023-05-23T17:03:54.450Z,12.08
2023-05-23T17:05:26.374Z,12.26
2023-05-23T17:07:17.811Z,12.36
2023-05-23T17:08:59.189Z,12.30
2023-05-23T17:10:31.535Z,12.12
2023-05-23T17:12:17.865Z,14.07
2023-05-23T17:13:49.487Z,13.39
2023-05-23T17:15:21.125Z,12.93
2023-05-23T17:16:52.563Z,11.31
2023-05-23T17:18:24.061Z,13.19
2023-05-23T17:20:11.946Z,15.43
2023-05-23T17:21:43.743Z,12.24
2023-05-23T17:23:16.283Z,14.18
2023-05-23T17:24:47.757Z,11.73
2023-05-23T17:26:19.891Z,11.92
2023-05-23T17:27:51.441Z,14.25
2023-05-23T17:29:22.860Z,13.59
2023-05-23T17:30:54.459Z,12.52
2023-05-23T17:32:25.964Z,11.34
2023-05-23T17:33:57.381Z,8.55
2023-05-23T17:35:29.149Z,13.93
2023-05-23T17:37:00.730Z,14.12
2023-05-23T17:38:32.139Z,13.18
2023-05-23T17:40:03.600Z,13.13
2023-05-23T17:41:35.070Z,14.52
2023-05-23T17:43:06.405Z,13.44
2023-05-23T17:44:37.954Z,17.08
2023-05-23T17:46:09.679Z,14.25
2023-05-23T17:47:41.253Z,13.57
2023-05-23T17:49:54.465Z,13.52
2023-05-23T17:51:26.037Z,13.26
2023-05-23T17:52:57.508Z,12.22
2023-05-23T17:54:29.076Z,10.64
2023-05-23T17:56:00.504Z,10.94
2023-05-23T17:57:32.080Z,16.77
2023-05-23T17:59:03.439Z,15.74
2023-05-23T18:00:34.845Z,12.68
2023-05-23T18:02:06.353Z,12.69
2023-05-23T18:05:48.954Z,15.73
2023-05-23T18:07:20.450Z,15.20
2023-05-23T18:08:52.033Z,11.78
2023-05-23T18:10:23.526Z,12.73
2023-05-23T18:11:55.317Z,13.90
2023-05-23T18:13:26.767Z,12.28
2023-05-23T18:14:58.172Z,13.38
2023-05-23T18:16:29.648Z,13.63
2023-05-23T18:18:11.120Z,12.02
2023-05-23T18:19:42.559Z,14.69
2023-05-23T18:21:14.726Z,12.30
2023-05-23T18:22:47.174Z,15.81
2023-05-23T18:24:18.737Z,11.84
2023-05-23T18:25:50.084Z,13.59
2023-05-23T18:27:21.469Z,13.36
2023-05-23T18:29:03.136Z,15.61
2023-05-23T18:30:36.495Z,12.77
2023-05-23T18:32:08.066Z,11.50
2023-05-23T18:33:39.556Z,12.14
2023-05-23T18:35:16.107Z,15.16
2023-05-23T18:36:47.506Z,13.74
2023-05-23T18:38:18.926Z,11.21
2023-05-23T18:39:50.366Z,12.68
2023-05-23T18:41:21.817Z,15.90
2023-05-23T18:42:53.246Z,12.56
2023-05-23T18:44:25.386Z,14.74
2023-05-23T18:45:56.803Z,14.28
2023-05-23T18:47:28.223Z,13.53
2023-05-23T18:48:59.597Z,12.67
2023-05-23T18:50:31.210Z,13.85
2023-05-23T18:52:02.649Z,12.87
2023-05-23T18:53:34.058Z,15.42
2023-05-23T18:55:05.457Z,14.44
2023-05-23T18:56:37.041Z,13.41
2023-05-23T18:58:08.465Z,16.66
2023-05-23T18:59:39.970Z,11.58
2023-05-23T19:01:11.420Z,13.44
2023-05-23T19:02:42.824Z,14.42
2023-05-23T19:04:35.959Z,12.90
2023-05-23T19:06:16.117Z,12.01
2023-05-23T19:07:59.674Z,12.46
2023-05-23T19:09:53.539Z,13.30
2023-05-23T19:13:58.884Z,12.77
2023-05-23T19:15:45.160Z,13.70
2023-05-23T19:17:27.476Z,16.26
2023-05-23T19:19:31.880Z,14.65
2023-05-23T19:21:13.461Z,16.96
2023-05-23T19:24:32.670Z,13.52
2023-05-23T19:26:20.620Z,13.64
2023-05-23T19:28:07.613Z,14.16
2023-05-23T19:30:02.015Z,14.83
2023-05-23T19:31:33.498Z,14.38
2023-05-23T19:33:05.170Z,11.41
2023-05-23T19:34:36.721Z,14.03
2023-05-23T19:36:38.203Z,12.49
2023-05-23T19:38:56.468Z,13.00
2023-05-23T19:40:27.882Z,13.17
2023-05-23T19:41:59.391Z,12.04
2023-05-23T19:43:30.813Z,16.26
2023-05-23T19:45:02.268Z,11.71
2023-05-23T19:46:57.417Z,14.46
2023-05-23T19:48:28.811Z,13.36
2023-05-23T19:50:00.101Z,14.08
2023-05-23T19:51:57.686Z,13.36
2023-05-23T19:53:29.097Z,14.10
2023-05-23T19:55:24.779Z,11.87
2023-05-23T19:57:34.434Z,13.95
2023-05-23T19:59:37.953Z,14.96
2023-05-23T20:01:10.617Z,14.57
2023-05-23T20:02:42.018Z,14.24
2023-05-23T20:04:19.139Z,12.55